sensor_id;sensor_type;location;lat;lon;timestamp;P1;durP1;ratioP1;P2;durP2;ratioP2
32611;SDS011;19030;49.478;8.986;2023-04-21T00:01:57;21.80;;;11.88;;
32611;SDS011;19030;49.478;8.986;2023-04-21T00:03:59;20.05;;;12.13;;
32611;SDS011;19030;49.478;8.986;2023-04-21T00:06:00;21.63;;;11.77;;
32611;SDS011;19030;49.478;8.986;2023-04-21T00:08:00;20.77;;;12.10;;
32611;SDS011;19030;49.478;8.986;2023-04-21T00:10:01;21.83;;;11.90;;
32611;SDS011;19030;49.478;8.986;2023-04-21T00:12:01;22.05;;;11.90;;
32611;SDS011;19030;49.478;8.986;2023-04-21T00:14:02;20.98;;;12.45;;
32611;SDS011;19030;49.478;8.986;2023-04-21T00:16:03;21.48;;;12.13;;
32611;SDS011;19030;49.478;8.986;2023-04-21T00:18:04;22.45;;;12.88;;
32611;SDS011;19030;49.478;8.986;2023-04-21T00:20:05;21.27;;;12.73;;
32611;SDS011;19030;49.478;8.986;2023-04-21T00:22:07;20.70;;;11.77;;
32611;SDS011;19030;49.478;8.986;2023-04-21T00:24:13;24.55;;;12.77;;
32611;SDS011;19030;49.478;8.986;2023-04-21T00:26:14;21.60;;;11.95;;
32611;SDS011;19030;49.478;8.986;2023-04-21T00:28:17;21.02;;;12.02;;
32611;SDS011;19030;49.478;8.986;2023-04-21T00:30:18;20.80;;;12.55;;
32611;SDS011;19030;49.478;8.986;2023-04-21T00:32:18;22.63;;;12.35;;
32611;SDS011;19030;49.478;8.986;2023-04-21T00:34:19;20.70;;;11.57;;
32611;SDS011;19030;49.478;8.986;2023-04-21T00:36:19;21.63;;;12.43;;
32611;SDS011;19030;49.478;8.986;2023-04-21T00:38:20;24.17;;;12.85;;
32611;SDS011;19030;49.478;8.986;2023-04-21T00:40:21;22.00;;;13.23;;
32611;SDS011;19030;49.478;8.986;2023-04-21T00:42:21;22.73;;;12.65;;
32611;SDS011;19030;49.478;8.986;2023-04-21T00:44:22;25.60;;;11.65;;
32611;SDS011;19030;49.478;8.986;2023-04-21T00:46:22;21.90;;;12.98;;
32611;SDS011;19030;49.478;8.986;2023-04-21T00:48:23;21.65;;;11.98;;
32611;SDS011;19030;49.478;8.986;2023-04-21T00:50:23;20.55;;;11.73;;
32611;SDS011;19030;49.478;8.986;2023-04-21T00:52:24;24.83;;;12.52;;
32611;SDS011;19030;49.478;8.986;2023-04-21T00:54:27;22.88;;;12.65;;
32611;SDS011;19030;49.478;8.986;2023-04-21T00:56:28;21.65;;;12.23;;
32611;SDS011;19030;49.478;8.986;2023-04-21T00:58:30;22.27;;;12.20;;
32611;SDS011;19030;49.478;8.986;2023-04-21T01:00:32;20.67;;;12.00;;
32611;SDS011;19030;49.478;8.986;2023-04-21T01:02:37;24.08;;;12.85;;
32611;SDS011;19030;49.478;8.986;2023-04-21T01:04:39;25.15;;;13.48;;
32611;SDS011;19030;49.478;8.986;2023-04-21T01:06:40;21.73;;;12.68;;
32611;SDS011;19030;49.478;8.986;2023-04-21T01:08:42;22.20;;;12.23;;
32611;SDS011;19030;49.478;8.986;2023-04-21T01:10:44;24.38;;;13.50;;
32611;SDS011;19030;49.478;8.986;2023-04-21T01:12:46;22.02;;;12.77;;
32611;SDS011;19030;49.478;8.986;2023-04-21T01:14:46;22.02;;;12.05;;
32611;SDS011;19030;49.478;8.986;2023-04-21T01:16:47;25.15;;;13.15;;
32611;SDS011;19030;49.478;8.986;2023-04-21T01:18:48;23.85;;;12.82;;
32611;SDS011;19030;49.478;8.986;2023-04-21T01:20:51;21.60;;;11.82;;
32611;SDS011;19030;49.478;8.986;2023-04-21T01:22:51;21.95;;;12.02;;
32611;SDS011;19030;49.478;8.986;2023-04-21T01:24:52;24.13;;;14.07;;
32611;SDS011;19030;49.478;8.986;2023-04-21T01:26:53;20.73;;;11.88;;
32611;SDS011;19030;49.478;8.986;2023-04-21T01:28:55;21.77;;;12.48;;
32611;SDS011;19030;49.478;8.986;2023-04-21T01:30:56;25.05;;;12.90;;
32611;SDS011;19030;49.478;8.986;2023-04-21T01:32:56;20.98;;;12.23;;
32611;SDS011;19030;49.478;8.986;2023-04-21T01:34:59;23.23;;;13.23;;
32611;SDS011;19030;49.478;8.986;2023-04-21T01:37:00;24.33;;;12.52;;
32611;SDS011;19030;49.478;8.986;2023-04-21T01:39:01;21.83;;;12.25;;
32611;SDS011;19030;49.478;8.986;2023-04-21T01:41:03;19.80;;;11.60;;
32611;SDS011;19030;49.478;8.986;2023-04-21T01:43:04;23.77;;;13.18;;
32611;SDS011;19030;49.478;8.986;2023-04-21T01:45:05;22.77;;;12.30;;
32611;SDS011;19030;49.478;8.986;2023-04-21T01:47:07;20.00;;;12.40;;
32611;SDS011;19030;49.478;8.986;2023-04-21T01:49:08;20.85;;;11.93;;
32611;SDS011;19030;49.478;8.986;2023-04-21T01:51:09;23.48;;;12.82;;
32611;SDS011;19030;49.478;8.986;2023-04-21T01:53:10;20.27;;;11.57;;
32611;SDS011;19030;49.478;8.986;2023-04-21T01:55:10;20.15;;;11.43;;
32611;SDS011;19030;49.478;8.986;2023-04-21T01:57:11;20.63;;;10.43;;
32611;SDS011;19030;49.478;8.986;2023-04-21T01:59:13;18.30;;;10.95;;
32611;SDS011;19030;49.478;8.986;2023-04-21T02:01:14;18.92;;;10.15;;
32611;SDS011;19030;49.478;8.986;2023-04-21T02:03:14;23.65;;;11.90;;
32611;SDS011;19030;49.478;8.986;2023-04-21T02:05:15;20.33;;;11.60;;
32611;SDS011;19030;49.478;8.986;2023-04-21T02:07:16;21.63;;;12.35;;
32611;SDS011;19030;49.478;8.986;2023-04-21T02:09:16;21.20;;;12.07;;
32611;SDS011;19030;49.478;8.986;2023-04-21T02:11:17;20.35;;;11.00;;
32611;SDS011;19030;49.478;8.986;2023-04-21T02:13:17;19.27;;;11.32;;
32611;SDS011;19030;49.478;8.986;2023-04-21T02:15:18;20.98;;;11.73;;
32611;SDS011;19030;49.478;8.986;2023-04-21T02:17:18;17.98;;;10.38;;
32611;SDS011;19030;49.478;8.986;2023-04-21T02:19:19;18.90;;;10.73;;
32611;SDS011;19030;49.478;8.986;2023-04-21T02:21:20;18.05;;;10.73;;
32611;SDS011;19030;49.478;8.986;2023-04-21T02:23:22;19.50;;;11.15;;
32611;SDS011;19030;49.478;8.986;2023-04-21T02:25:23;19.77;;;10.80;;
32611;SDS011;19030;49.478;8.986;2023-04-21T02:27:23;21.38;;;11.13;;
32611;SDS011;19030;49.478;8.986;2023-04-21T02:29:24;21.15;;;10.98;;
32611;SDS011;19030;49.478;8.986;2023-04-21T02:31:25;21.08;;;11.43;;
32611;SDS011;19030;49.478;8.986;2023-04-21T02:33:25;19.40;;;10.55;;
32611;SDS011;19030;49.478;8.986;2023-04-21T02:35:26;20.30;;;11.05;;
32611;SDS011;19030;49.478;8.986;2023-04-21T02:37:26;19.08;;;10.73;;
32611;SDS011;19030;49.478;8.986;2023-04-21T02:39:27;17.30;;;10.70;;
32611;SDS011;19030;49.478;8.986;2023-04-21T02:41:28;19.00;;;10.82;;
32611;SDS011;19030;49.478;8.986;2023-04-21T02:43:28;17.55;;;9.48;;
32611;SDS011;19030;49.478;8.986;2023-04-21T02:45:29;19.00;;;10.23;;
32611;SDS011;19030;49.478;8.986;2023-04-21T02:47:30;19.88;;;10.93;;
32611;SDS011;19030;49.478;8.986;2023-04-21T02:49:31;21.48;;;10.40;;
32611;SDS011;19030;49.478;8.986;2023-04-21T02:51:31;18.23;;;10.32;;
32611;SDS011;19030;49.478;8.986;2023-04-21T02:53:32;19.90;;;10.30;;
32611;SDS011;19030;49.478;8.986;2023-04-21T02:55:32;18.67;;;10.93;;
32611;SDS011;19030;49.478;8.986;2023-04-21T02:57:33;18.80;;;10.57;;
32611;SDS011;19030;49.478;8.986;2023-04-21T02:59:34;16.77;;;9.32;;
32611;SDS011;19030;49.478;8.986;2023-04-21T03:01:34;18.88;;;10.27;;
32611;SDS011;19030;49.478;8.986;2023-04-21T03:03:35;18.13;;;10.23;;
32611;SDS011;19030;49.478;8.986;2023-04-21T03:05:35;17.13;;;10.30;;
32611;SDS011;19030;49.478;8.986;2023-04-21T03:07:36;15.98;;;9.43;;
32611;SDS011;19030;49.478;8.986;2023-04-21T03:09:38;15.73;;;9.18;;
32611;SDS011;19030;49.478;8.986;2023-04-21T03:11:39;14.32;;;8.63;;
32611;SDS011;19030;49.478;8.986;2023-04-21T03:13:39;13.95;;;7.78;;
32611;SDS011;19030;49.478;8.986;2023-04-21T03:15:40;14.52;;;8.13;;
32611;SDS011;19030;49.478;8.986;2023-04-21T03:17:40;16.02;;;8.68;;
32611;SDS011;19030;49.478;8.986;2023-04-21T03:19:41;15.23;;;8.80;;
32611;SDS011;19030;49.478;8.986;2023-04-21T03:21:42;17.83;;;8.40;;
32611;SDS011;19030;49.478;8.986;2023-04-21T03:23:42;17.42;;;9.00;;
32611;SDS011;19030;49.478;8.986;2023-04-21T03:25:43;17.13;;;8.93;;
32611;SDS011;19030;49.478;8.986;2023-04-21T03:27:43;18.70;;;9.10;;
32611;SDS011;19030;49.478;8.986;2023-04-21T03:29:44;19.48;;;9.90;;
32611;SDS011;19030;49.478;8.986;2023-04-21T03:31:45;18.63;;;9.98;;
32611;SDS011;19030;49.478;8.986;2023-04-21T03:33:46;18.13;;;9.32;;
32611;SDS011;19030;49.478;8.986;2023-04-21T03:35:46;17.13;;;9.38;;
32611;SDS011;19030;49.478;8.986;2023-04-21T03:37:47;15.95;;;8.70;;
32611;SDS011;19030;49.478;8.986;2023-04-21T03:39:48;17.58;;;9.38;;
32611;SDS011;19030;49.478;8.986;2023-04-21T03:41:49;16.75;;;10.10;;
32611;SDS011;19030;49.478;8.986;2023-04-21T03:43:50;17.55;;;9.77;;
32611;SDS011;19030;49.478;8.986;2023-04-21T03:45:52;16.20;;;9.20;;
32611;SDS011;19030;49.478;8.986;2023-04-21T03:47:53;14.73;;;8.20;;
32611;SDS011;19030;49.478;8.986;2023-04-21T03:49:54;18.75;;;9.43;;
32611;SDS011;19030;49.478;8.986;2023-04-21T03:51:55;16.77;;;10.18;;
32611;SDS011;19030;49.478;8.986;2023-04-21T03:53:55;17.45;;;9.48;;
32611;SDS011;19030;49.478;8.986;2023-04-21T03:55:56;15.60;;;9.05;;
32611;SDS011;19030;49.478;8.986;2023-04-21T03:57:56;16.42;;;9.13;;
32611;SDS011;19030;49.478;8.986;2023-04-21T03:59:57;18.77;;;9.57;;
32611;SDS011;19030;49.478;8.986;2023-04-21T04:01:57;18.73;;;9.95;;
32611;SDS011;19030;49.478;8.986;2023-04-21T04:03:58;16.48;;;8.82;;
32611;SDS011;19030;49.478;8.986;2023-04-21T04:05:58;17.02;;;9.63;;
32611;SDS011;19030;49.478;8.986;2023-04-21T04:07:59;14.38;;;8.50;;
32611;SDS011;19030;49.478;8.986;2023-04-21T04:10:00;17.42;;;9.60;;
32611;SDS011;19030;49.478;8.986;2023-04-21T04:12:00;17.90;;;8.43;;
32611;SDS011;19030;49.478;8.986;2023-04-21T04:14:02;18.75;;;9.35;;
32611;SDS011;19030;49.478;8.986;2023-04-21T04:16:02;16.00;;;8.32;;
32611;SDS011;19030;49.478;8.986;2023-04-21T04:18:03;14.02;;;8.43;;
32611;SDS011;19030;49.478;8.986;2023-04-21T04:20:05;15.70;;;8.45;;
32611;SDS011;19030;49.478;8.986;2023-04-21T04:22:07;14.95;;;8.93;;
32611;SDS011;19030;49.478;8.986;2023-04-21T04:24:07;17.33;;;9.35;;
32611;SDS011;19030;49.478;8.986;2023-04-21T04:26:10;14.70;;;8.70;;
32611;SDS011;19030;49.478;8.986;2023-04-21T04:28:10;14.30;;;8.02;;
32611;SDS011;19030;49.478;8.986;2023-04-21T04:30:11;16.40;;;9.57;;
32611;SDS011;19030;49.478;8.986;2023-04-21T04:32:12;16.10;;;8.45;;
32611;SDS011;19030;49.478;8.986;2023-04-21T04:34:14;12.88;;;7.47;;
32611;SDS011;19030;49.478;8.986;2023-04-21T04:36:14;12.35;;;7.57;;
32611;SDS011;19030;49.478;8.986;2023-04-21T04:38:15;15.73;;;8.75;;
32611;SDS011;19030;49.478;8.986;2023-04-21T04:40:16;14.45;;;7.97;;
32611;SDS011;19030;49.478;8.986;2023-04-21T04:42:16;14.75;;;8.40;;
32611;SDS011;19030;49.478;8.986;2023-04-21T04:44:19;15.85;;;8.63;;
32611;SDS011;19030;49.478;8.986;2023-04-21T04:46:19;14.38;;;7.90;;
32611;SDS011;19030;49.478;8.986;2023-04-21T04:48:20;14.13;;;7.35;;
32611;SDS011;19030;49.478;8.986;2023-04-21T04:50:21;13.73;;;7.68;;
32611;SDS011;19030;49.478;8.986;2023-04-21T04:52:21;12.95;;;7.47;;
32611;SDS011;19030;49.478;8.986;2023-04-21T04:54:22;14.07;;;7.05;;
32611;SDS011;19030;49.478;8.986;2023-04-21T04:56:24;13.35;;;7.28;;
32611;SDS011;19030;49.478;8.986;2023-04-21T04:58:24;15.00;;;8.38;;
32611;SDS011;19030;49.478;8.986;2023-04-21T05:00:25;18.08;;;8.20;;
32611;SDS011;19030;49.478;8.986;2023-04-21T05:02:26;13.88;;;7.95;;
32611;SDS011;19030;49.478;8.986;2023-04-21T05:04:26;18.25;;;7.57;;
32611;SDS011;19030;49.478;8.986;2023-04-21T05:06:27;16.40;;;8.63;;
32611;SDS011;19030;49.478;8.986;2023-04-21T05:08:27;14.93;;;8.60;;
32611;SDS011;19030;49.478;8.986;2023-04-21T05:10:28;17.05;;;8.85;;
32611;SDS011;19030;49.478;8.986;2023-04-21T05:12:29;14.60;;;8.15;;
32611;SDS011;19030;49.478;8.986;2023-04-21T05:14:31;14.65;;;8.43;;
32611;SDS011;19030;49.478;8.986;2023-04-21T05:16:31;14.85;;;8.57;;
32611;SDS011;19030;49.478;8.986;2023-04-21T05:18:33;15.05;;;8.25;;
32611;SDS011;19030;49.478;8.986;2023-04-21T05:20:33;15.27;;;7.65;;
32611;SDS011;19030;49.478;8.986;2023-04-21T05:22:37;14.25;;;8.55;;
32611;SDS011;19030;49.478;8.986;2023-04-21T05:24:42;16.10;;;7.95;;
32611;SDS011;19030;49.478;8.986;2023-04-21T05:26:43;16.65;;;9.05;;
32611;SDS011;19030;49.478;8.986;2023-04-21T05:28:43;14.98;;;8.38;;
32611;SDS011;19030;49.478;8.986;2023-04-21T05:30:44;15.20;;;8.57;;
32611;SDS011;19030;49.478;8.986;2023-04-21T05:32:44;15.63;;;8.45;;
32611;SDS011;19030;49.478;8.986;2023-04-21T05:34:45;16.05;;;8.70;;
32611;SDS011;19030;49.478;8.986;2023-04-21T05:36:46;16.25;;;8.65;;
32611;SDS011;19030;49.478;8.986;2023-04-21T05:38:47;14.02;;;7.90;;
32611;SDS011;19030;49.478;8.986;2023-04-21T05:40:52;18.67;;;8.05;;
32611;SDS011;19030;49.478;8.986;2023-04-21T05:42:54;15.45;;;8.93;;
32611;SDS011;19030;49.478;8.986;2023-04-21T05:44:55;15.07;;;7.95;;
32611;SDS011;19030;49.478;8.986;2023-04-21T05:46:55;15.63;;;8.68;;
32611;SDS011;19030;49.478;8.986;2023-04-21T05:48:56;15.27;;;8.50;;
32611;SDS011;19030;49.478;8.986;2023-04-21T05:50:56;13.13;;;7.32;;
32611;SDS011;19030;49.478;8.986;2023-04-21T05:53:06;14.77;;;8.45;;
32611;SDS011;19030;49.478;8.986;2023-04-21T05:55:07;17.70;;;8.40;;
32611;SDS011;19030;49.478;8.986;2023-04-21T05:57:07;13.73;;;8.00;;
32611;SDS011;19030;49.478;8.986;2023-04-21T05:59:08;17.58;;;9.32;;
32611;SDS011;19030;49.478;8.986;2023-04-21T06:01:08;15.25;;;7.97;;
32611;SDS011;19030;49.478;8.986;2023-04-21T06:03:09;15.43;;;8.30;;
32611;SDS011;19030;49.478;8.986;2023-04-21T06:05:09;14.15;;;7.90;;
32611;SDS011;19030;49.478;8.986;2023-04-21T06:07:10;14.57;;;8.23;;
32611;SDS011;19030;49.478;8.986;2023-04-21T06:09:12;13.75;;;7.88;;
32611;SDS011;19030;49.478;8.986;2023-04-21T06:11:14;15.02;;;8.75;;
32611;SDS011;19030;49.478;8.986;2023-04-21T06:13:15;14.23;;;8.13;;
32611;SDS011;19030;49.478;8.986;2023-04-21T06:15:15;14.25;;;8.20;;
32611;SDS011;19030;49.478;8.986;2023-04-21T06:17:16;16.25;;;8.35;;
32611;SDS011;19030;49.478;8.986;2023-04-21T06:19:17;16.10;;;8.10;;
32611;SDS011;19030;49.478;8.986;2023-04-21T06:21:17;14.80;;;8.50;;
32611;SDS011;19030;49.478;8.986;2023-04-21T06:23:18;15.13;;;8.38;;
32611;SDS011;19030;49.478;8.986;2023-04-21T06:25:19;13.68;;;7.88;;
32611;SDS011;19030;49.478;8.986;2023-04-21T06:27:20;13.40;;;8.00;;
32611;SDS011;19030;49.478;8.986;2023-04-21T06:29:20;13.45;;;7.40;;
32611;SDS011;19030;49.478;8.986;2023-04-21T06:31:21;14.68;;;8.27;;
32611;SDS011;19030;49.478;8.986;2023-04-21T06:33:21;14.18;;;8.00;;
32611;SDS011;19030;49.478;8.986;2023-04-21T06:35:22;15.35;;;8.55;;
32611;SDS011;19030;49.478;8.986;2023-04-21T06:37:22;14.10;;;7.85;;
32611;SDS011;19030;49.478;8.986;2023-04-21T06:39:23;14.57;;;7.75;;
32611;SDS011;19030;49.478;8.986;2023-04-21T06:41:23;14.80;;;7.30;;
32611;SDS011;19030;49.478;8.986;2023-04-21T06:43:24;13.40;;;8.10;;
32611;SDS011;19030;49.478;8.986;2023-04-21T06:45:25;13.55;;;7.38;;
32611;SDS011;19030;49.478;8.986;2023-04-21T06:47:25;13.02;;;7.85;;
32611;SDS011;19030;49.478;8.986;2023-04-21T06:49:26;15.93;;;8.48;;
32611;SDS011;19030;49.478;8.986;2023-04-21T06:51:26;13.15;;;7.50;;
32611;SDS011;19030;49.478;8.986;2023-04-21T06:53:27;16.23;;;8.45;;
32611;SDS011;19030;49.478;8.986;2023-04-21T06:55:28;14.55;;;9.00;;
32611;SDS011;19030;49.478;8.986;2023-04-21T06:57:28;13.27;;;7.47;;
32611;SDS011;19030;49.478;8.986;2023-04-21T06:59:29;12.40;;;7.15;;
32611;SDS011;19030;49.478;8.986;2023-04-21T07:01:29;13.73;;;7.57;;
32611;SDS011;19030;49.478;8.986;2023-04-21T07:03:30;14.55;;;8.45;;
32611;SDS011;19030;49.478;8.986;2023-04-21T07:05:30;15.82;;;8.38;;
32611;SDS011;19030;49.478;8.986;2023-04-21T07:07:31;17.08;;;7.65;;
32611;SDS011;19030;49.478;8.986;2023-04-21T07:09:32;14.85;;;8.27;;
32611;SDS011;19030;49.478;8.986;2023-04-21T07:11:32;15.00;;;7.85;;
32611;SDS011;19030;49.478;8.986;2023-04-21T07:13:33;12.75;;;7.75;;
32611;SDS011;19030;49.478;8.986;2023-04-21T07:15:33;15.52;;;8.70;;
32611;SDS011;19030;49.478;8.986;2023-04-21T07:17:34;13.98;;;8.38;;
32611;SDS011;19030;49.478;8.986;2023-04-21T07:19:35;13.20;;;8.02;;
32611;SDS011;19030;49.478;8.986;2023-04-21T07:21:36;14.80;;;8.95;;
32611;SDS011;19030;49.478;8.986;2023-04-21T07:23:36;13.85;;;7.65;;
32611;SDS011;19030;49.478;8.986;2023-04-21T07:25:37;17.23;;;9.48;;
32611;SDS011;19030;49.478;8.986;2023-04-21T07:27:37;13.48;;;7.97;;
32611;SDS011;19030;49.478;8.986;2023-04-21T07:29:38;12.38;;;7.10;;
32611;SDS011;19030;49.478;8.986;2023-04-21T07:31:39;12.57;;;7.60;;
32611;SDS011;19030;49.478;8.986;2023-04-21T07:33:39;13.27;;;7.95;;
32611;SDS011;19030;49.478;8.986;2023-04-21T07:35:40;13.02;;;7.53;;
32611;SDS011;19030;49.478;8.986;2023-04-21T07:37:40;13.48;;;8.13;;
32611;SDS011;19030;49.478;8.986;2023-04-21T07:39:41;11.55;;;6.72;;
32611;SDS011;19030;49.478;8.986;2023-04-21T07:41:41;10.48;;;5.93;;
32611;SDS011;19030;49.478;8.986;2023-04-21T07:43:42;14.88;;;7.82;;
32611;SDS011;19030;49.478;8.986;2023-04-21T07:45:43;12.88;;;7.80;;
32611;SDS011;19030;49.478;8.986;2023-04-21T07:47:44;10.65;;;6.78;;
32611;SDS011;19030;49.478;8.986;2023-04-21T07:49:45;11.98;;;6.93;;
32611;SDS011;19030;49.478;8.986;2023-04-21T07:51:45;11.60;;;6.97;;
32611;SDS011;19030;49.478;8.986;2023-04-21T07:53:46;11.80;;;6.85;;
32611;SDS011;19030;49.478;8.986;2023-04-21T07:55:46;12.90;;;7.00;;
32611;SDS011;19030;49.478;8.986;2023-04-21T07:57:47;10.73;;;6.50;;
32611;SDS011;19030;49.478;8.986;2023-04-21T07:59:48;12.63;;;7.30;;
32611;SDS011;19030;49.478;8.986;2023-04-21T08:01:48;11.43;;;6.57;;
32611;SDS011;19030;49.478;8.986;2023-04-21T08:03:50;13.45;;;7.40;;
32611;SDS011;19030;49.478;8.986;2023-04-21T08:05:51;11.98;;;8.18;;
32611;SDS011;19030;49.478;8.986;2023-04-21T08:07:51;13.07;;;7.72;;
32611;SDS011;19030;49.478;8.986;2023-04-21T08:09:52;11.63;;;7.63;;
32611;SDS011;19030;49.478;8.986;2023-04-21T08:11:52;11.75;;;7.13;;
32611;SDS011;19030;49.478;8.986;2023-04-21T08:13:54;13.00;;;6.68;;
32611;SDS011;19030;49.478;8.986;2023-04-21T08:15:54;10.88;;;6.82;;
32611;SDS011;19030;49.478;8.986;2023-04-21T08:17:55;10.43;;;6.18;;
32611;SDS011;19030;49.478;8.986;2023-04-21T08:19:56;11.15;;;7.25;;
32611;SDS011;19030;49.478;8.986;2023-04-21T08:21:56;13.73;;;7.63;;
32611;SDS011;19030;49.478;8.986;2023-04-21T08:23:57;12.00;;;6.93;;
32611;SDS011;19030;49.478;8.986;2023-04-21T08:26:01;10.75;;;7.03;;
32611;SDS011;19030;49.478;8.986;2023-04-21T08:28:02;11.18;;;7.22;;
32611;SDS011;19030;49.478;8.986;2023-04-21T08:30:02;11.23;;;6.90;;
32611;SDS011;19030;49.478;8.986;2023-04-21T08:32:03;11.93;;;7.63;;
32611;SDS011;19030;49.478;8.986;2023-04-21T08:34:04;11.57;;;7.45;;
32611;SDS011;19030;49.478;8.986;2023-04-21T08:36:06;11.18;;;7.40;;
32611;SDS011;19030;49.478;8.986;2023-04-21T08:38:07;12.35;;;7.10;;
32611;SDS011;19030;49.478;8.986;2023-04-21T08:40:08;11.60;;;7.57;;
32611;SDS011;19030;49.478;8.986;2023-04-21T08:42:09;11.88;;;7.63;;
32611;SDS011;19030;49.478;8.986;2023-04-21T08:44:10;9.63;;;6.43;;
32611;SDS011;19030;49.478;8.986;2023-04-21T08:46:11;10.55;;;6.72;;
32611;SDS011;19030;49.478;8.986;2023-04-21T08:48:12;9.80;;;6.10;;
32611;SDS011;19030;49.478;8.986;2023-04-21T08:50:17;10.82;;;6.75;;
32611;SDS011;19030;49.478;8.986;2023-04-21T08:52:18;10.25;;;6.72;;
32611;SDS011;19030;49.478;8.986;2023-04-21T08:54:19;14.65;;;13.15;;
32611;SDS011;19030;49.478;8.986;2023-04-21T08:56:20;15.77;;;14.13;;
32611;SDS011;19030;49.478;8.986;2023-04-21T08:58:23;14.32;;;12.82;;
32611;SDS011;19030;49.478;8.986;2023-04-21T09:00:23;14.32;;;12.98;;
32611;SDS011;19030;49.478;8.986;2023-04-21T09:02:24;16.63;;;15.10;;
32611;SDS011;19030;49.478;8.986;2023-04-21T09:04:25;18.02;;;16.42;;
32611;SDS011;19030;49.478;8.986;2023-04-21T09:06:39;16.70;;;15.10;;
32611;SDS011;19030;49.478;8.986;2023-04-21T09:08:42;10.73;;;8.27;;
32611;SDS011;19030;49.478;8.986;2023-04-21T09:10:51;11.57;;;7.82;;
32611;SDS011;19030;49.478;8.986;2023-04-21T09:12:53;10.52;;;6.15;;
32611;SDS011;19030;49.478;8.986;2023-04-21T09:14:53;9.60;;;5.93;;
32611;SDS011;19030;49.478;8.986;2023-04-21T09:17:01;10.65;;;6.57;;
32611;SDS011;19030;49.478;8.986;2023-04-21T09:19:02;10.75;;;6.68;;
32611;SDS011;19030;49.478;8.986;2023-04-21T09:21:14;10.60;;;6.95;;
32611;SDS011;19030;49.478;8.986;2023-04-21T09:23:17;10.15;;;7.95;;
32611;SDS011;19030;49.478;8.986;2023-04-21T09:25:19;13.10;;;10.32;;
32611;SDS011;19030;49.478;8.986;2023-04-21T09:27:21;10.52;;;7.43;;
32611;SDS011;19030;49.478;8.986;2023-04-21T09:29:22;9.75;;;6.88;;
32611;SDS011;19030;49.478;8.986;2023-04-21T09:31:23;10.55;;;7.47;;
32611;SDS011;19030;49.478;8.986;2023-04-21T09:33:24;12.82;;;8.07;;
32611;SDS011;19030;49.478;8.986;2023-04-21T09:35:28;16.80;;;15.20;;
32611;SDS011;19030;49.478;8.986;2023-04-21T09:37:31;13.13;;;10.00;;
32611;SDS011;19030;49.478;8.986;2023-04-21T09:39:33;13.07;;;8.93;;
32611;SDS011;19030;49.478;8.986;2023-04-21T09:41:34;12.93;;;8.02;;
32611;SDS011;19030;49.478;8.986;2023-04-21T09:43:34;12.95;;;7.80;;
32611;SDS011;19030;49.478;8.986;2023-04-21T09:45:35;15.82;;;9.27;;
32611;SDS011;19030;49.478;8.986;2023-04-21T09:47:40;13.23;;;8.75;;
32611;SDS011;19030;49.478;8.986;2023-04-21T09:49:41;14.95;;;9.30;;
32611;SDS011;19030;49.478;8.986;2023-04-21T09:51:44;11.68;;;7.43;;
32611;SDS011;19030;49.478;8.986;2023-04-21T09:53:44;12.82;;;8.18;;
32611;SDS011;19030;49.478;8.986;2023-04-21T09:55:48;15.57;;;9.15;;
32611;SDS011;19030;49.478;8.986;2023-04-21T09:57:50;13.02;;;9.20;;
32611;SDS011;19030;49.478;8.986;2023-04-21T10:00:14;14.32;;;9.35;;
32611;SDS011;19030;49.478;8.986;2023-04-21T10:02:17;14.13;;;8.57;;
32611;SDS011;19030;49.478;8.986;2023-04-21T10:04:19;16.27;;;14.57;;
32611;SDS011;19030;49.478;8.986;2023-04-21T10:06:22;16.85;;;10.15;;
32611;SDS011;19030;49.478;8.986;2023-04-21T10:08:22;15.75;;;10.98;;
32611;SDS011;19030;49.478;8.986;2023-04-21T10:10:23;16.88;;;11.77;;
32611;SDS011;19030;49.478;8.986;2023-04-21T10:12:26;16.90;;;11.27;;
32611;SDS011;19030;49.478;8.986;2023-04-21T10:14:27;17.85;;;11.82;;
32611;SDS011;19030;49.478;8.986;2023-04-21T10:16:27;15.57;;;11.13;;
32611;SDS011;19030;49.478;8.986;2023-04-21T10:18:28;19.80;;;12.07;;
32611;SDS011;19030;49.478;8.986;2023-04-21T10:20:29;15.80;;;11.00;;
32611;SDS011;19030;49.478;8.986;2023-04-21T10:22:31;17.70;;;11.32;;
32611;SDS011;19030;49.478;8.986;2023-04-21T10:24:36;17.27;;;11.30;;
32611;SDS011;19030;49.478;8.986;2023-04-21T10:26:41;15.52;;;9.82;;
32611;SDS011;19030;49.478;8.986;2023-04-21T10:28:52;17.65;;;11.05;;
32611;SDS011;19030;49.478;8.986;2023-04-21T10:31:13;15.85;;;10.98;;
32611;SDS011;19030;49.478;8.986;2023-04-21T10:33:22;17.15;;;11.32;;
32611;SDS011;19030;49.478;8.986;2023-04-21T10:35:23;17.02;;;11.20;;
32611;SDS011;19030;49.478;8.986;2023-04-21T10:37:23;15.90;;;11.50;;
32611;SDS011;19030;49.478;8.986;2023-04-21T10:43:41;17.40;;;12.02;;
32611;SDS011;19030;49.478;8.986;2023-04-21T10:45:44;17.10;;;12.35;;
32611;SDS011;19030;49.478;8.986;2023-04-21T10:47:47;18.85;;;12.20;;
32611;SDS011;19030;49.478;8.986;2023-04-21T10:49:50;17.30;;;12.25;;
32611;SDS011;19030;49.478;8.986;2023-04-21T10:54:03;19.45;;;12.80;;
32611;SDS011;19030;49.478;8.986;2023-04-21T10:56:04;19.30;;;13.25;;
32611;SDS011;19030;49.478;8.986;2023-04-21T10:58:06;20.05;;;13.50;;
32611;SDS011;19030;49.478;8.986;2023-04-21T11:00:13;24.15;;;15.48;;
32611;SDS011;19030;49.478;8.986;2023-04-21T11:02:18;22.63;;;17.15;;
32611;SDS011;19030;49.478;8.986;2023-04-21T11:04:19;25.05;;;18.35;;
32611;SDS011;19030;49.478;8.986;2023-04-21T11:06:20;24.42;;;17.65;;
32611;SDS011;19030;49.478;8.986;2023-04-21T11:08:21;23.05;;;16.33;;
32611;SDS011;19030;49.478;8.986;2023-04-21T11:10:21;20.33;;;15.60;;
32611;SDS011;19030;49.478;8.986;2023-04-21T11:12:24;23.40;;;18.23;;
32611;SDS011;19030;49.478;8.986;2023-04-21T11:14:29;22.80;;;18.63;;
32611;SDS011;19030;49.478;8.986;2023-04-21T11:16:30;22.83;;;17.80;;
32611;SDS011;19030;49.478;8.986;2023-04-21T11:18:37;22.15;;;19.30;;
32611;SDS011;19030;49.478;8.986;2023-04-21T11:20:42;22.42;;;17.50;;
32611;SDS011;19030;49.478;8.986;2023-04-21T11:22:45;19.08;;;14.95;;
32611;SDS011;19030;49.478;8.986;2023-04-21T11:24:52;19.73;;;14.63;;
32611;SDS011;19030;49.478;8.986;2023-04-21T11:26:54;20.92;;;16.17;;
32611;SDS011;19030;49.478;8.986;2023-04-21T11:28:55;19.38;;;15.77;;
32611;SDS011;19030;49.478;8.986;2023-04-21T11:30:59;21.15;;;17.75;;
32611;SDS011;19030;49.478;8.986;2023-04-21T11:33:00;19.98;;;17.88;;
32611;SDS011;19030;49.478;8.986;2023-04-21T11:35:00;21.33;;;17.40;;
32611;SDS011;19030;49.478;8.986;2023-04-21T11:37:01;20.67;;;17.20;;
32611;SDS011;19030;49.478;8.986;2023-04-21T11:39:05;23.20;;;19.15;;
32611;SDS011;19030;49.478;8.986;2023-04-21T11:41:09;24.52;;;19.42;;
32611;SDS011;19030;49.478;8.986;2023-04-21T11:43:10;21.27;;;17.00;;
32611;SDS011;19030;49.478;8.986;2023-04-21T11:45:17;22.58;;;18.38;;
32611;SDS011;19030;49.478;8.986;2023-04-21T11:47:19;22.67;;;17.60;;
32611;SDS011;19030;49.478;8.986;2023-04-21T11:49:23;22.45;;;18.23;;
32611;SDS011;19030;49.478;8.986;2023-04-21T11:51:31;20.17;;;17.38;;
32611;SDS011;19030;49.478;8.986;2023-04-21T11:53:36;22.20;;;18.58;;
32611;SDS011;19030;49.478;8.986;2023-04-21T11:55:36;22.73;;;17.92;;
32611;SDS011;19030;49.478;8.986;2023-04-21T11:57:41;20.17;;;16.58;;
32611;SDS011;19030;49.478;8.986;2023-04-21T11:59:44;20.83;;;16.55;;
32611;SDS011;19030;49.478;8.986;2023-04-21T12:03:54;21.27;;;17.58;;
32611;SDS011;19030;49.478;8.986;2023-04-21T12:05:55;21.90;;;17.98;;